Flight Track Log - Related Links

Times and Time Zones

All times are in EDT time to prevent confusion due to time zone crossing. See the FLG3735 flight status page for this flight to view local times or setup timezone preferences in your user account.

Time Position Orientation Groundspeed Altitude Reporting Facility
EDT Latitude Longitude Course Direction KTS MPH feet Rate Location/Type
Thu 10:08:40 PM 42.2292 -83.3369 71° East 146 168 1,200  Level Cleveland Center
Thu 10:09:40 PM 42.2717 -83.2994 33° Northeast 204 235 2,900 1,884 Climbing Cleveland Center
Thu 10:10:41 PM 42.3250 -83.2511 34° Northeast 262 302 5,000 2,459 Climbing Cleveland Center
Thu 10:11:00 PM 42.2914 -82.8765 75° East  Level FlightAware Approximate
Thu 10:11:42 PM 42.3706 -83.1717 52° Northeast 284 327 7,900  Level Cleveland Center
Thu 10:12:00 PM 42.3199 -82.7180 82° East  Level FlightAware Approximate
Thu 10:12:09 PM 42.3694 -83.1350 92° East 294 338 8,700  Level Cleveland Center
Thu 10:13:00 PM 42.3399 -82.5573 71° East  Level FlightAware Approximate
Thu 10:13:09 PM 42.3675 -83.0253 91° East 294 338 10,900  Level Cleveland Center
Thu 10:14:09 PM 42.3681 -82.8961 90° East 308 354 12,700 1,700 Climbing Cleveland Center
Thu 10:15:09 PM 42.3686 -82.7639 90° East 332 382 14,300 1,500 Climbing Cleveland Center
Thu 10:17:09 PM 42.3675 -82.4828 90° East 370 426 17,200 1,300 Climbing Cleveland Center
Thu 10:18:09 PM 42.3636 -82.3339 92° East 382 440 18,200 1,050 Climbing Cleveland Center
Thu 10:19:09 PM 42.3572 -82.1847 93° East 393 452 19,300 1,000 Climbing Cleveland Center
Thu 10:20:09 PM 42.3511 -82.0328 93° East 404 465 20,200 1,000 Climbing Cleveland Center
Thu 10:21:09 PM 42.3447 -81.8642 93° East 424 488 21,300 1,050 Climbing Cleveland Center
Thu 10:22:09 PM 42.3381 -81.7122 93° East 424 488 22,300 1,000 Climbing Cleveland Center
Thu 10:23:09 PM 42.3311 -81.5494 93° East 429 494 23,300 950 Climbing Cleveland Center
Thu 10:24:09 PM 42.3219 -81.3892 94° East 429 494 24,200 700 Climbing Cleveland Center
Thu 10:25:09 PM 42.3125 -81.2036 94° East 441 507 24,700 500 Climbing Cleveland Center
Thu 10:26:09 PM 42.3050 -81.0325 93° East 452 520 25,200 500 Climbing Cleveland Center
Thu 10:27:09 PM 42.2953 -80.8556 94° East 463 533 25,700 500 Climbing Cleveland Center
Thu 10:28:09 PM 42.2872 -80.6786 93° East 463 533 26,200 500 Climbing Cleveland Center
Thu 10:29:09 PM 42.2956 -80.4989 86° East 476 548 26,700 550 Climbing Cleveland Center
Thu 10:30:09 PM 42.3139 -80.3164 82° East 481 554 27,300 550 Climbing Cleveland Center
Thu 10:31:09 PM 42.3322 -80.1339 82° East 481 554 27,800 450 Climbing Cleveland Center
Thu 10:32:09 PM 42.3481 -79.9650 83° East 486 559 28,200 450 Climbing Cleveland Center
Thu 10:33:09 PM 42.3636 -79.7881 83° East 486 559 28,700 500 Climbing Cleveland Center
Thu 10:34:09 PM 42.3811 -79.6022 83° East 486 559 29,200 500 Climbing Cleveland Center
Thu 10:35:09 PM 42.3961 -79.4219 84° East 486 559 29,700 500 Climbing Cleveland Center
Thu 10:36:09 PM 42.4108 -79.2417 84° East 486 559 30,200 500 Climbing Cleveland Center
Thu 10:37:09 PM 42.4294 -79.0586 82° East 486 559 30,700 400 Climbing Cleveland Center
Thu 10:38:09 PM 42.4453 -78.8611 84° East 480 552 31,000 150 Climbing Cleveland Center
Thu 10:39:09 PM 42.4611 -78.6722 83° East 488 562 31,000  Level Cleveland Center
Thu 10:40:09 PM 42.4767 -78.4831 84° East 493 567 31,000  Level Cleveland Center
Thu 10:41:09 PM 42.4897 -78.2939 85° East 503 579 31,000  Level Cleveland Center
Thu 10:42:09 PM 42.5042 -78.0964 84° East 509 586 31,000  Level Cleveland Center
Thu 10:43:09 PM 42.5186 -77.9042 84° East 509 586 31,000 -250 Level Cleveland Center
Thu 10:44:09 PM 42.5350 -77.7117 83° East 509 586 30,500 -450 Descending Cleveland Center
Thu 10:45:09 PM 42.5508 -77.5167 84° East 516 594 30,100 -459 Descending Cleveland Center
Thu 10:46:59 PM 42.5725 -77.1775 85° East 537 618 29,200 -388 Descending Boston Center
Thu 10:47:59 PM 42.5844 -76.9867 85° East 518 596 29,000 -100 Descending Boston Center
Thu 10:48:59 PM 42.5958 -76.8067 85° East 497 572 29,000  Level Boston Center
Thu 10:49:59 PM 42.6067 -76.6269 85° East 478 550 29,000  Level Boston Center
Thu 10:50:59 PM 42.6175 -76.4469 85° East 478 550 29,000  Level Boston Center
Thu 10:51:59 PM 42.6297 -76.2728 84° East 473 544 29,000 -50 Level Boston Center
Thu 10:52:59 PM 42.6400 -76.0814 86° East 462 532 28,900 -700 Descending Boston Center
Thu 10:53:59 PM 42.6494 -75.9181 85° East 468 539 27,600 -1,350 Descending Boston Center
Thu 10:54:59 PM 42.6558 -75.7717 87° East 475 547 26,200 -1,900 Descending Boston Center
Thu 10:55:59 PM 42.6700 -75.5719 84° East 468 539 23,800 -2,200 Descending Boston Center
Thu 10:56:59 PM 42.6786 -75.4056 86° East 451 519 21,800 -2,000 Descending Boston Center
Thu 10:57:59 PM 42.6722 -75.2472 93° East 428 493 19,800 -2,000 Descending Boston Center
Thu 10:58:59 PM 42.6611 -75.0969 96° East 410 472 17,800 -2,000 Descending Boston Center
Thu 10:59:59 PM 42.6522 -74.9442 94° East 404 465 15,800 -1,950 Descending Boston Center
Thu 11:00:59 PM 42.6367 -74.7856 98° East 397 457 13,900 -1,871 Descending Boston Center
Thu 11:01:32 PM 42.6319 -74.7092 95° East 359 413 12,900 -1,759 Descending Boston Center
Thu 11:01:57 PM 42.6267 -74.6581 98° East 351 404 12,200 -1,341 Descending Boston Center
Thu 11:02:57 PM 42.6167 -74.5308 96° East 346 398 11,000 -942 Descending Boston Center
Thu 11:03:58 PM 42.6086 -74.4064 95° East 332 382 10,300 -1,289 Descending Boston Center
Thu 11:04:58 PM 42.5958 -74.2847 98° East 303 349 8,400 -1,785 Descending Boston Center
Thu 11:05:59 PM 42.5894 -74.1717 94° East 292 336 6,700 -1,488 Descending Boston Center
Thu 11:06:59 PM 42.5886 -74.0758 91° East 288 331 5,400 -1,350 Descending Boston Center
Thu 11:07:59 PM 42.5903 -73.9714 89° East 258 297 4,000 -1,200 Descending Boston Center
Thu 11:08:59 PM 42.5892 -73.8925 91° East 239 275 3,000 -1,000 Descending Boston Center

Login

Don't have an account? Register now (free) for customized features, flight alerts, and more!